sensor_id;sensor_type;location;lat;lon;timestamp;temperature;humidity
15749;DHT22;7976;52.526;13.326;2023-05-03T00:02:01;10.30;99.90
15749;DHT22;7976;52.526;13.326;2023-05-03T00:04:30;10.30;99.90
15749;DHT22;7976;52.526;13.326;2023-05-03T00:06:57;10.20;99.90
15749;DHT22;7976;52.526;13.326;2023-05-03T00:09:24;10.20;99.90
15749;DHT22;7976;52.526;13.326;2023-05-03T00:11:51;10.10;99.90
15749;DHT22;7976;52.526;13.326;2023-05-03T00:14:18;10.10;99.90
15749;DHT22;7976;52.526;13.326;2023-05-03T00:16:45;10.00;99.90
15749;DHT22;7976;52.526;13.326;2023-05-03T00:19:12;10.00;99.90
15749;DHT22;7976;52.526;13.326;2023-05-03T00:21:40;9.90;99.90
15749;DHT22;7976;52.526;13.326;2023-05-03T00:24:07;9.90;99.90
15749;DHT22;7976;52.526;13.326;2023-05-03T00:26:34;9.90;99.90
15749;DHT22;7976;52.526;13.326;2023-05-03T00:29:01;9.80;99.90
15749;DHT22;7976;52.526;13.326;2023-05-03T00:31:28;9.80;99.90
15749;DHT22;7976;52.526;13.326;2023-05-03T00:33:55;9.80;99.90
15749;DHT22;7976;52.526;13.326;2023-05-03T00:36:21;9.70;99.90
15749;DHT22;7976;52.526;13.326;2023-05-03T00:38:49;9.70;99.90
15749;DHT22;7976;52.526;13.326;2023-05-03T00:41:16;9.60;99.90
15749;DHT22;7976;52.526;13.326;2023-05-03T00:43:43;9.60;99.90
15749;DHT22;7976;52.526;13.326;2023-05-03T00:46:10;9.60;99.90
15749;DHT22;7976;52.526;13.326;2023-05-03T00:48:37;9.60;99.90
15749;DHT22;7976;52.526;13.326;2023-05-03T00:51:04;9.60;99.90
15749;DHT22;7976;52.526;13.326;2023-05-03T00:53:32;9.60;99.90
15749;DHT22;7976;52.526;13.326;2023-05-03T00:56:02;9.50;99.90
15749;DHT22;7976;52.526;13.326;2023-05-03T00:58:30;9.60;99.90
15749;DHT22;7976;52.526;13.326;2023-05-03T01:01:01;9.50;99.90
15749;DHT22;7976;52.526;13.326;2023-05-03T01:03:28;9.40;99.90
15749;DHT22;7976;52.526;13.326;2023-05-03T01:06:00;9.40;99.90
15749;DHT22;7976;52.526;13.326;2023-05-03T01:08:37;9.30;99.90
15749;DHT22;7976;52.526;13.326;2023-05-03T01:11:13;9.20;99.90
15749;DHT22;7976;52.526;13.326;2023-05-03T01:13:53;9.20;99.90
15749;DHT22;7976;52.526;13.326;2023-05-03T01:16:27;9.20;99.90
15749;DHT22;7976;52.526;13.326;2023-05-03T01:19:04;9.10;99.90
15749;DHT22;7976;52.526;13.326;2023-05-03T01:21:39;9.10;99.90
15749;DHT22;7976;52.526;13.326;2023-05-03T01:24:17;9.00;99.90
15749;DHT22;7976;52.526;13.326;2023-05-03T01:26:50;9.00;99.90
15749;DHT22;7976;52.526;13.326;2023-05-03T01:29:17;8.90;99.90
15749;DHT22;7976;52.526;13.326;2023-05-03T01:31:48;8.90;99.90
15749;DHT22;7976;52.526;13.326;2023-05-03T01:34:32;8.80;99.90
15749;DHT22;7976;52.526;13.326;2023-05-03T01:37:08;8.80;99.90
15749;DHT22;7976;52.526;13.326;2023-05-03T01:39:45;8.70;99.90
15749;DHT22;7976;52.526;13.326;2023-05-03T01:42:18;8.70;99.90
15749;DHT22;7976;52.526;13.326;2023-05-03T01:44:46;8.60;99.90
15749;DHT22;7976;52.526;13.326;2023-05-03T01:47:15;8.60;99.90
15749;DHT22;7976;52.526;13.326;2023-05-03T01:49:42;8.50;99.90
15749;DHT22;7976;52.526;13.326;2023-05-03T01:52:08;8.50;99.90
15749;DHT22;7976;52.526;13.326;2023-05-03T01:54:36;8.50;99.90
15749;DHT22;7976;52.526;13.326;2023-05-03T01:57:03;8.40;99.90
15749;DHT22;7976;52.526;13.326;2023-05-03T01:59:31;8.40;99.90
15749;DHT22;7976;52.526;13.326;2023-05-03T02:01:58;8.30;99.90
15749;DHT22;7976;52.526;13.326;2023-05-03T02:04:25;8.30;99.90
15749;DHT22;7976;52.526;13.326;2023-05-03T02:06:52;8.30;99.90
15749;DHT22;7976;52.526;13.326;2023-05-03T02:09:27;8.20;99.90
15749;DHT22;7976;52.526;13.326;2023-05-03T02:11:54;8.20;99.90
15749;DHT22;7976;52.526;13.326;2023-05-03T02:14:21;8.20;99.90
15749;DHT22;7976;52.526;13.326;2023-05-03T02:16:53;8.20;99.90
15749;DHT22;7976;52.526;13.326;2023-05-03T02:19:20;8.20;99.90
15749;DHT22;7976;52.526;13.326;2023-05-03T02:21:47;8.10;99.90
15749;DHT22;7976;52.526;13.326;2023-05-03T02:24:14;8.10;99.90
15749;DHT22;7976;52.526;13.326;2023-05-03T02:26:42;8.10;99.90
15749;DHT22;7976;52.526;13.326;2023-05-03T02:29:09;8.00;99.90
15749;DHT22;7976;52.526;13.326;2023-05-03T02:31:35;8.00;99.90
15749;DHT22;7976;52.526;13.326;2023-05-03T02:34:04;8.00;99.90
15749;DHT22;7976;52.526;13.326;2023-05-03T02:36:31;8.00;99.90
15749;DHT22;7976;52.526;13.326;2023-05-03T02:39:00;8.00;99.90
15749;DHT22;7976;52.526;13.326;2023-05-03T02:41:27;7.90;99.90
15749;DHT22;7976;52.526;13.326;2023-05-03T02:43:55;7.90;99.90
15749;DHT22;7976;52.526;13.326;2023-05-03T02:46:24;7.90;99.90
15749;DHT22;7976;52.526;13.326;2023-05-03T02:48:51;7.80;99.90
15749;DHT22;7976;52.526;13.326;2023-05-03T02:51:19;7.80;99.90
15749;DHT22;7976;52.526;13.326;2023-05-03T02:53:46;7.80;99.90
15749;DHT22;7976;52.526;13.326;2023-05-03T02:56:13;7.80;99.90
15749;DHT22;7976;52.526;13.326;2023-05-03T02:58:40;7.80;99.90
15749;DHT22;7976;52.526;13.326;2023-05-03T03:01:07;7.70;99.90
15749;DHT22;7976;52.526;13.326;2023-05-03T03:03:33;7.70;99.90
15749;DHT22;7976;52.526;13.326;2023-05-03T03:06:00;7.70;99.90
15749;DHT22;7976;52.526;13.326;2023-05-03T03:08:29;7.60;99.90
15749;DHT22;7976;52.526;13.326;2023-05-03T03:10:59;7.60;99.90
15749;DHT22;7976;52.526;13.326;2023-05-03T03:13:26;7.60;99.90
15749;DHT22;7976;52.526;13.326;2023-05-03T03:15:53;7.50;99.90
15749;DHT22;7976;52.526;13.326;2023-05-03T03:18:20;7.50;99.90
15749;DHT22;7976;52.526;13.326;2023-05-03T03:20:46;7.50;99.90
15749;DHT22;7976;52.526;13.326;2023-05-03T03:23:13;7.50;99.90
15749;DHT22;7976;52.526;13.326;2023-05-03T03:25:42;7.50;99.90
15749;DHT22;7976;52.526;13.326;2023-05-03T03:28:09;7.40;99.90
15749;DHT22;7976;52.526;13.326;2023-05-03T03:30:36;7.40;99.90
15749;DHT22;7976;52.526;13.326;2023-05-03T03:33:14;7.40;99.90
15749;DHT22;7976;52.526;13.326;2023-05-03T03:35:41;7.30;99.90
15749;DHT22;7976;52.526;13.326;2023-05-03T03:38:10;7.30;99.90
15749;DHT22;7976;52.526;13.326;2023-05-03T03:40:44;7.30;99.90
15749;DHT22;7976;52.526;13.326;2023-05-03T03:43:11;7.30;99.90
15749;DHT22;7976;52.526;13.326;2023-05-03T03:45:38;7.30;99.90
15749;DHT22;7976;52.526;13.326;2023-05-03T03:48:06;7.30;99.90
15749;DHT22;7976;52.526;13.326;2023-05-03T03:50:33;7.30;99.90
15749;DHT22;7976;52.526;13.326;2023-05-03T03:53:00;7.30;99.90
15749;DHT22;7976;52.526;13.326;2023-05-03T03:55:27;7.30;99.90
15749;DHT22;7976;52.526;13.326;2023-05-03T03:57:57;7.20;99.90
15749;DHT22;7976;52.526;13.326;2023-05-03T04:00:25;7.20;99.90
15749;DHT22;7976;52.526;13.326;2023-05-03T04:03:03;7.20;99.90
15749;DHT22;7976;52.526;13.326;2023-05-03T04:05:31;7.20;99.90
15749;DHT22;7976;52.526;13.326;2023-05-03T04:07:58;7.30;99.90
15749;DHT22;7976;52.526;13.326;2023-05-03T04:10:28;7.30;99.90
15749;DHT22;7976;52.526;13.326;2023-05-03T04:12:54;7.20;99.90
15749;DHT22;7976;52.526;13.326;2023-05-03T04:15:23;7.20;99.90
15749;DHT22;7976;52.526;13.326;2023-05-03T04:17:50;7.20;99.90
15749;DHT22;7976;52.526;13.326;2023-05-03T04:20:18;7.20;99.90
15749;DHT22;7976;52.526;13.326;2023-05-03T04:22:47;7.20;99.90
15749;DHT22;7976;52.526;13.326;2023-05-03T04:25:16;7.20;99.90
15749;DHT22;7976;52.526;13.326;2023-05-03T04:27:50;7.20;99.90
15749;DHT22;7976;52.526;13.326;2023-05-03T04:30:19;7.10;99.90
15749;DHT22;7976;52.526;13.326;2023-05-03T04:32:49;7.20;99.90
15749;DHT22;7976;52.526;13.326;2023-05-03T04:35:18;7.20;99.90
15749;DHT22;7976;52.526;13.326;2023-05-03T04:37:46;7.20;99.90
15749;DHT22;7976;52.526;13.326;2023-05-03T04:40:17;7.20;99.90
15749;DHT22;7976;52.526;13.326;2023-05-03T04:42:50;7.10;99.90
15749;DHT22;7976;52.526;13.326;2023-05-03T04:45:19;7.10;99.90
15749;DHT22;7976;52.526;13.326;2023-05-03T04:47:47;7.20;99.90
15749;DHT22;7976;52.526;13.326;2023-05-03T04:50:14;7.20;99.90
15749;DHT22;7976;52.526;13.326;2023-05-03T04:52:44;7.20;99.90
15749;DHT22;7976;52.526;13.326;2023-05-03T04:55:11;7.20;99.90
15749;DHT22;7976;52.526;13.326;2023-05-03T04:57:39;7.20;99.90
15749;DHT22;7976;52.526;13.326;2023-05-03T05:00:09;7.30;99.90
15749;DHT22;7976;52.526;13.326;2023-05-03T05:02:40;7.30;99.90
15749;DHT22;7976;52.526;13.326;2023-05-03T05:05:09;7.40;99.90
15749;DHT22;7976;52.526;13.326;2023-05-03T05:07:36;7.40;99.90
15749;DHT22;7976;52.526;13.326;2023-05-03T05:10:03;7.40;99.90
15749;DHT22;7976;52.526;13.326;2023-05-03T05:12:31;7.50;99.90
15749;DHT22;7976;52.526;13.326;2023-05-03T05:15:01;7.60;99.90
15749;DHT22;7976;52.526;13.326;2023-05-03T05:17:28;7.60;99.90
15749;DHT22;7976;52.526;13.326;2023-05-03T05:19:57;7.60;99.90
15749;DHT22;7976;52.526;13.326;2023-05-03T05:22:27;7.70;99.90
15749;DHT22;7976;52.526;13.326;2023-05-03T05:24:57;7.80;99.90
15749;DHT22;7976;52.526;13.326;2023-05-03T05:27:25;7.80;99.90
15749;DHT22;7976;52.526;13.326;2023-05-03T05:29:53;7.90;99.90
15749;DHT22;7976;52.526;13.326;2023-05-03T05:32:20;7.90;99.90
15749;DHT22;7976;52.526;13.326;2023-05-03T05:34:47;8.00;99.90
15749;DHT22;7976;52.526;13.326;2023-05-03T05:37:19;8.00;99.90
15749;DHT22;7976;52.526;13.326;2023-05-03T05:39:46;8.10;99.90
15749;DHT22;7976;52.526;13.326;2023-05-03T05:42:15;8.20;99.90
15749;DHT22;7976;52.526;13.326;2023-05-03T05:44:41;8.20;99.90
15749;DHT22;7976;52.526;13.326;2023-05-03T05:47:09;8.20;99.90
15749;DHT22;7976;52.526;13.326;2023-05-03T05:49:37;8.30;99.90
15749;DHT22;7976;52.526;13.326;2023-05-03T05:52:05;8.40;99.90
15749;DHT22;7976;52.526;13.326;2023-05-03T05:54:33;8.40;99.90
15749;DHT22;7976;52.526;13.326;2023-05-03T05:57:01;8.50;99.90
15749;DHT22;7976;52.526;13.326;2023-05-03T05:59:28;8.50;99.90
15749;DHT22;7976;52.526;13.326;2023-05-03T06:01:56;8.60;99.90
15749;DHT22;7976;52.526;13.326;2023-05-03T06:04:24;8.70;99.90
15749;DHT22;7976;52.526;13.326;2023-05-03T06:06:52;8.70;99.90
15749;DHT22;7976;52.526;13.326;2023-05-03T06:09:18;8.80;99.90
15749;DHT22;7976;52.526;13.326;2023-05-03T06:11:47;8.90;99.90
15749;DHT22;7976;52.526;13.326;2023-05-03T06:14:15;8.90;99.90
15749;DHT22;7976;52.526;13.326;2023-05-03T06:16:44;9.00;99.90
15749;DHT22;7976;52.526;13.326;2023-05-03T06:19:10;9.00;99.90
15749;DHT22;7976;52.526;13.326;2023-05-03T06:21:37;9.10;99.90
15749;DHT22;7976;52.526;13.326;2023-05-03T06:24:05;9.20;99.90
15749;DHT22;7976;52.526;13.326;2023-05-03T06:26:32;9.20;99.90
15749;DHT22;7976;52.526;13.326;2023-05-03T06:29:02;9.30;99.90
15749;DHT22;7976;52.526;13.326;2023-05-03T06:31:29;9.30;99.90
15749;DHT22;7976;52.526;13.326;2023-05-03T06:33:56;9.50;99.90
15749;DHT22;7976;52.526;13.326;2023-05-03T06:36:24;9.80;99.90
15749;DHT22;7976;52.526;13.326;2023-05-03T06:38:52;10.20;99.90
15749;DHT22;7976;52.526;13.326;2023-05-03T06:41:18;10.60;99.90
15749;DHT22;7976;52.526;13.326;2023-05-03T06:43:46;10.90;99.90
15749;DHT22;7976;52.526;13.326;2023-05-03T06:46:14;10.90;99.90
15749;DHT22;7976;52.526;13.326;2023-05-03T06:48:41;10.80;99.90
15749;DHT22;7976;52.526;13.326;2023-05-03T06:51:07;10.70;99.90
15749;DHT22;7976;52.526;13.326;2023-05-03T06:53:34;10.70;99.90
15749;DHT22;7976;52.526;13.326;2023-05-03T06:56:01;10.70;99.90
15749;DHT22;7976;52.526;13.326;2023-05-03T06:58:29;10.70;99.90
15749;DHT22;7976;52.526;13.326;2023-05-03T07:00:56;10.70;99.90
15749;DHT22;7976;52.526;13.326;2023-05-03T07:03:24;10.80;99.90
15749;DHT22;7976;52.526;13.326;2023-05-03T07:05:51;10.80;99.90
15749;DHT22;7976;52.526;13.326;2023-05-03T07:08:18;10.90;99.90
15749;DHT22;7976;52.526;13.326;2023-05-03T07:10:45;11.10;99.90
15749;DHT22;7976;52.526;13.326;2023-05-03T07:13:12;11.20;99.90
15749;DHT22;7976;52.526;13.326;2023-05-03T07:15:39;11.20;99.90
15749;DHT22;7976;52.526;13.326;2023-05-03T07:18:05;11.30;99.90
15749;DHT22;7976;52.526;13.326;2023-05-03T07:20:34;11.40;99.90
15749;DHT22;7976;52.526;13.326;2023-05-03T07:23:01;11.50;99.90
15749;DHT22;7976;52.526;13.326;2023-05-03T07:25:28;11.60;99.90
15749;DHT22;7976;52.526;13.326;2023-05-03T07:27:56;11.60;99.90
15749;DHT22;7976;52.526;13.326;2023-05-03T07:30:22;11.70;99.90
15749;DHT22;7976;52.526;13.326;2023-05-03T07:32:49;11.70;99.90
15749;DHT22;7976;52.526;13.326;2023-05-03T07:35:16;11.80;99.90
15749;DHT22;7976;52.526;13.326;2023-05-03T07:37:45;11.80;99.90
15749;DHT22;7976;52.526;13.326;2023-05-03T07:40:12;11.80;99.90
15749;DHT22;7976;52.526;13.326;2023-05-03T07:42:38;11.90;99.90
15749;DHT22;7976;52.526;13.326;2023-05-03T07:45:06;12.00;99.90
15749;DHT22;7976;52.526;13.326;2023-05-03T07:47:34;12.10;99.90
15749;DHT22;7976;52.526;13.326;2023-05-03T07:50:04;12.20;99.90
15749;DHT22;7976;52.526;13.326;2023-05-03T07:52:34;12.20;99.90
15749;DHT22;7976;52.526;13.326;2023-05-03T07:55:04;12.20;99.90
15749;DHT22;7976;52.526;13.326;2023-05-03T07:57:32;12.30;99.90
15749;DHT22;7976;52.526;13.326;2023-05-03T07:59:59;12.30;99.90
15749;DHT22;7976;52.526;13.326;2023-05-03T08:02:25;12.30;99.90
15749;DHT22;7976;52.526;13.326;2023-05-03T08:04:52;12.40;99.90
15749;DHT22;7976;52.526;13.326;2023-05-03T08:07:19;12.50;99.90
15749;DHT22;7976;52.526;13.326;2023-05-03T08:09:46;12.50;99.90
15749;DHT22;7976;52.526;13.326;2023-05-03T08:12:15;12.60;99.90
15749;DHT22;7976;52.526;13.326;2023-05-03T08:14:42;12.50;99.90
15749;DHT22;7976;52.526;13.326;2023-05-03T08:17:08;12.60;99.90
15749;DHT22;7976;52.526;13.326;2023-05-03T08:19:35;12.60;99.90
15749;DHT22;7976;52.526;13.326;2023-05-03T08:22:02;12.60;99.90
15749;DHT22;7976;52.526;13.326;2023-05-03T08:24:30;12.70;99.90
15749;DHT22;7976;52.526;13.326;2023-05-03T08:26:57;12.80;99.90
15749;DHT22;7976;52.526;13.326;2023-05-03T08:29:25;12.80;99.90
15749;DHT22;7976;52.526;13.326;2023-05-03T08:31:52;12.70;99.90
15749;DHT22;7976;52.526;13.326;2023-05-03T08:34:19;12.80;99.90
15749;DHT22;7976;52.526;13.326;2023-05-03T08:36:46;12.90;99.90
15749;DHT22;7976;52.526;13.326;2023-05-03T08:39:12;13.00;99.90
15749;DHT22;7976;52.526;13.326;2023-05-03T08:41:40;13.10;99.90
15749;DHT22;7976;52.526;13.326;2023-05-03T08:44:07;13.20;99.90
15749;DHT22;7976;52.526;13.326;2023-05-03T08:46:42;13.30;99.90
15749;DHT22;7976;52.526;13.326;2023-05-03T08:49:09;13.30;99.90
15749;DHT22;7976;52.526;13.326;2023-05-03T08:51:39;13.40;99.90
15749;DHT22;7976;52.526;13.326;2023-05-03T08:54:07;13.40;99.90
15749;DHT22;7976;52.526;13.326;2023-05-03T08:56:38;13.50;99.90
15749;DHT22;7976;52.526;13.326;2023-05-03T08:59:06;13.70;99.90
15749;DHT22;7976;52.526;13.326;2023-05-03T09:01:34;13.60;99.90
15749;DHT22;7976;52.526;13.326;2023-05-03T09:04:03;13.40;99.90
15749;DHT22;7976;52.526;13.326;2023-05-03T09:06:31;13.40;99.90
15749;DHT22;7976;52.526;13.326;2023-05-03T09:08:58;13.50;99.90
15749;DHT22;7976;52.526;13.326;2023-05-03T09:11:27;13.50;99.90
15749;DHT22;7976;52.526;13.326;2023-05-03T09:14:07;13.50;99.90
15749;DHT22;7976;52.526;13.326;2023-05-03T09:16:36;13.60;99.90
15749;DHT22;7976;52.526;13.326;2023-05-03T09:19:06;13.60;99.90
15749;DHT22;7976;52.526;13.326;2023-05-03T09:21:36;13.70;99.90
15749;DHT22;7976;52.526;13.326;2023-05-03T09:24:12;13.80;99.90
15749;DHT22;7976;52.526;13.326;2023-05-03T09:26:40;13.90;99.90
15749;DHT22;7976;52.526;13.326;2023-05-03T09:29:07;13.90;99.90
15749;DHT22;7976;52.526;13.326;2023-05-03T09:31:35;13.80;99.90
15749;DHT22;7976;52.526;13.326;2023-05-03T09:34:20;14.00;99.90
15749;DHT22;7976;52.526;13.326;2023-05-03T09:36:47;14.00;99.90
15749;DHT22;7976;52.526;13.326;2023-05-03T09:39:17;14.00;99.90
15749;DHT22;7976;52.526;13.326;2023-05-03T09:41:45;14.20;99.90
15749;DHT22;7976;52.526;13.326;2023-05-03T09:44:12;14.30;99.90
15749;DHT22;7976;52.526;13.326;2023-05-03T09:46:39;14.40;99.90
15749;DHT22;7976;52.526;13.326;2023-05-03T09:49:31;14.50;99.80
15749;DHT22;7976;52.526;13.326;2023-05-03T09:51:58;14.60;99.30
15749;DHT22;7976;52.526;13.326;2023-05-03T09:54:26;14.60;99.10
15749;DHT22;7976;52.526;13.326;2023-05-03T09:56:56;14.60;98.70
15749;DHT22;7976;52.526;13.326;2023-05-03T09:59:23;14.60;98.20
15749;DHT22;7976;52.526;13.326;2023-05-03T10:01:53;14.50;98.40
15749;DHT22;7976;52.526;13.326;2023-05-03T10:04:24;14.30;98.00
15749;DHT22;7976;52.526;13.326;2023-05-03T10:06:57;14.10;98.00
15749;DHT22;7976;52.526;13.326;2023-05-03T10:09:30;13.90;98.40
15749;DHT22;7976;52.526;13.326;2023-05-03T10:12:07;13.90;98.80
15749;DHT22;7976;52.526;13.326;2023-05-03T10:14:38;14.00;99.00
15749;DHT22;7976;52.526;13.326;2023-05-03T10:17:08;14.30;98.90
15749;DHT22;7976;52.526;13.326;2023-05-03T10:19:46;14.50;98.60
15749;DHT22;7976;52.526;13.326;2023-05-03T10:22:19;14.70;98.60
15749;DHT22;7976;52.526;13.326;2023-05-03T10:25:08;14.80;98.70
15749;DHT22;7976;52.526;13.326;2023-05-03T10:27:49;15.10;98.50
15749;DHT22;7976;52.526;13.326;2023-05-03T10:30:26;15.30;98.20
15749;DHT22;7976;52.526;13.326;2023-05-03T10:32:56;15.40;97.90
15749;DHT22;7976;52.526;13.326;2023-05-03T10:35:26;15.50;97.80
15749;DHT22;7976;52.526;13.326;2023-05-03T10:37:55;15.50;97.60
15749;DHT22;7976;52.526;13.326;2023-05-03T10:40:23;15.40;97.50
15749;DHT22;7976;52.526;13.326;2023-05-03T10:43:05;15.40;97.10
15749;DHT22;7976;52.526;13.326;2023-05-03T10:45:32;15.30;96.80
15749;DHT22;7976;52.526;13.326;2023-05-03T10:48:14;15.40;96.90
15749;DHT22;7976;52.526;13.326;2023-05-03T10:50:45;15.50;96.80
15749;DHT22;7976;52.526;13.326;2023-05-03T10:53:35;15.60;97.00
15749;DHT22;7976;52.526;13.326;2023-05-03T10:56:04;15.50;96.80
15749;DHT22;7976;52.526;13.326;2023-05-03T10:58:35;15.60;96.70
15749;DHT22;7976;52.526;13.326;2023-05-03T11:01:04;15.60;96.40
15749;DHT22;7976;52.526;13.326;2023-05-03T11:03:44;15.60;96.70
15749;DHT22;7976;52.526;13.326;2023-05-03T11:06:27;15.70;96.80
15749;DHT22;7976;52.526;13.326;2023-05-03T11:08:58;15.80;96.70
15749;DHT22;7976;52.526;13.326;2023-05-03T11:11:25;15.90;96.50
15749;DHT22;7976;52.526;13.326;2023-05-03T11:13:52;15.90;96.30
15749;DHT22;7976;52.526;13.326;2023-05-03T11:16:20;15.90;96.10
15749;DHT22;7976;52.526;13.326;2023-05-03T11:18:48;15.80;96.50
15749;DHT22;7976;52.526;13.326;2023-05-03T11:21:17;15.90;96.50
15749;DHT22;7976;52.526;13.326;2023-05-03T11:23:44;15.90;96.40
15749;DHT22;7976;52.526;13.326;2023-05-03T11:26:13;16.00;96.20
15749;DHT22;7976;52.526;13.326;2023-05-03T11:28:41;16.10;96.10
15749;DHT22;7976;52.526;13.326;2023-05-03T11:31:11;16.00;96.00
15749;DHT22;7976;52.526;13.326;2023-05-03T11:33:40;15.90;95.80
15749;DHT22;7976;52.526;13.326;2023-05-03T11:36:07;15.90;96.00
15749;DHT22;7976;52.526;13.326;2023-05-03T11:38:36;15.80;95.60
15749;DHT22;7976;52.526;13.326;2023-05-03T11:41:11;15.70;95.60
15749;DHT22;7976;52.526;13.326;2023-05-03T11:43:41;15.80;95.30
15749;DHT22;7976;52.526;13.326;2023-05-03T11:46:09;15.70;95.20
15749;DHT22;7976;52.526;13.326;2023-05-03T11:48:37;15.70;95.60
15749;DHT22;7976;52.526;13.326;2023-05-03T11:51:08;15.80;95.50
15749;DHT22;7976;52.526;13.326;2023-05-03T11:53:37;15.90;95.60
15749;DHT22;7976;52.526;13.326;2023-05-03T11:56:06;15.90;95.00
15749;DHT22;7976;52.526;13.326;2023-05-03T11:58:48;16.00;95.20
15749;DHT22;7976;52.526;13.326;2023-05-03T12:01:18;16.10;95.20
15749;DHT22;7976;52.526;13.326;2023-05-03T12:03:47;16.20;95.30
15749;DHT22;7976;52.526;13.326;2023-05-03T12:06:17;16.30;95.00
15749;DHT22;7976;52.526;13.326;2023-05-03T12:08:44;16.30;95.00
15749;DHT22;7976;52.526;13.326;2023-05-03T12:11:11;16.40;94.70
15749;DHT22;7976;52.526;13.326;2023-05-03T12:13:40;16.40;94.30
15749;DHT22;7976;52.526;13.326;2023-05-03T12:16:08;16.50;94.20
15749;DHT22;7976;52.526;13.326;2023-05-03T12:18:50;16.40;94.00
15749;DHT22;7976;52.526;13.326;2023-05-03T12:21:19;16.40;93.30
15749;DHT22;7976;52.526;13.326;2023-05-03T12:23:47;16.40;93.30
15749;DHT22;7976;52.526;13.326;2023-05-03T12:26:15;16.40;93.40
15749;DHT22;7976;52.526;13.326;2023-05-03T12:28:45;16.50;93.40
15749;DHT22;7976;52.526;13.326;2023-05-03T12:31:12;16.50;93.60
15749;DHT22;7976;52.526;13.326;2023-05-03T12:33:39;16.60;94.00
15749;DHT22;7976;52.526;13.326;2023-05-03T12:36:07;16.60;94.20
15749;DHT22;7976;52.526;13.326;2023-05-03T12:38:35;16.60;94.00
15749;DHT22;7976;52.526;13.326;2023-05-03T12:41:02;16.60;94.10
15749;DHT22;7976;52.526;13.326;2023-05-03T12:43:28;16.70;94.20
15749;DHT22;7976;52.526;13.326;2023-05-03T12:45:56;16.80;94.20
15749;DHT22;7976;52.526;13.326;2023-05-03T12:48:27;16.90;93.70
15749;DHT22;7976;52.526;13.326;2023-05-03T12:50:55;16.80;93.20
15749;DHT22;7976;52.526;13.326;2023-05-03T12:53:23;16.80;92.80
15749;DHT22;7976;52.526;13.326;2023-05-03T12:55:50;16.60;92.60
15749;DHT22;7976;52.526;13.326;2023-05-03T12:58:17;16.50;92.90
15749;DHT22;7976;52.526;13.326;2023-05-03T13:00:44;16.50;92.90
15749;DHT22;7976;52.526;13.326;2023-05-03T13:03:13;16.60;93.10
15749;DHT22;7976;52.526;13.326;2023-05-03T13:05:40;16.70;93.10
15749;DHT22;7976;52.526;13.326;2023-05-03T13:08:07;16.70;92.90
15749;DHT22;7976;52.526;13.326;2023-05-03T13:10:35;16.80;92.80
15749;DHT22;7976;52.526;13.326;2023-05-03T13:13:03;16.80;92.70
15749;DHT22;7976;52.526;13.326;2023-05-03T13:15:32;16.80;92.60
15749;DHT22;7976;52.526;13.326;2023-05-03T13:18:00;16.80;92.70
15749;DHT22;7976;52.526;13.326;2023-05-03T13:20:30;16.90;92.70
15749;DHT22;7976;52.526;13.326;2023-05-03T13:22:57;17.00;92.60
15749;DHT22;7976;52.526;13.326;2023-05-03T13:25:24;17.00;92.60
15749;DHT22;7976;52.526;13.326;2023-05-03T13:27:51;17.00;92.20
15749;DHT22;7976;52.526;13.326;2023-05-03T13:30:19;16.90;92.10
15749;DHT22;7976;52.526;13.326;2023-05-03T13:32:47;16.70;91.80
15749;DHT22;7976;52.526;13.326;2023-05-03T13:35:15;16.50;91.70
15749;DHT22;7976;52.526;13.326;2023-05-03T13:37:43;16.40;91.90
15749;DHT22;7976;52.526;13.326;2023-05-03T13:40:11;16.30;92.30
15749;DHT22;7976;52.526;13.326;2023-05-03T13:42:39;16.50;92.60
15749;DHT22;7976;52.526;13.326;2023-05-03T13:45:07;16.60;92.60
15749;DHT22;7976;52.526;13.326;2023-05-03T13:47:35;16.60;91.90
15749;DHT22;7976;52.526;13.326;2023-05-03T13:50:02;16.60;92.10
15749;DHT22;7976;52.526;13.326;2023-05-03T13:52:29;16.50;91.90
15749;DHT22;7976;52.526;13.326;2023-05-03T13:54:57;16.50;92.10
15749;DHT22;7976;52.526;13.326;2023-05-03T13:57:24;16.60;92.20
15749;DHT22;7976;52.526;13.326;2023-05-03T13:59:51;16.60;91.90
15749;DHT22;7976;52.526;13.326;2023-05-03T14:02:18;16.60;92.20
15749;DHT22;7976;52.526;13.326;2023-05-03T14:04:45;16.70;92.40
15749;DHT22;7976;52.526;13.326;2023-05-03T14:07:12;16.90;92.60
15749;DHT22;7976;52.526;13.326;2023-05-03T14:09:38;17.00;92.90
15749;DHT22;7976;52.526;13.326;2023-05-03T14:12:07;17.00;92.60
15749;DHT22;7976;52.526;13.326;2023-05-03T14:14:34;17.00;92.50
15749;DHT22;7976;52.526;13.326;2023-05-03T14:17:01;17.00;92.40
15749;DHT22;7976;52.526;13.326;2023-05-03T14:19:28;17.00;92.50
15749;DHT22;7976;52.526;13.326;2023-05-03T14:21:55;17.00;92.50
15749;DHT22;7976;52.526;13.326;2023-05-03T14:24:24;17.00;92.60
15749;DHT22;7976;52.526;13.326;2023-05-03T14:26:51;17.00;92.60
15749;DHT22;7976;52.526;13.326;2023-05-03T14:29:19;17.00;92.30
15749;DHT22;7976;52.526;13.326;2023-05-03T14:31:46;16.90;92.30
15749;DHT22;7976;52.526;13.326;2023-05-03T14:34:13;17.00;92.30
15749;DHT22;7976;52.526;13.326;2023-05-03T14:36:40;17.00;92.40
15749;DHT22;7976;52.526;13.326;2023-05-03T14:39:08;17.00;92.30
15749;DHT22;7976;52.526;13.326;2023-05-03T14:41:35;16.90;92.30
15749;DHT22;7976;52.526;13.326;2023-05-03T14:44:02;16.90;92.10
15749;DHT22;7976;52.526;13.326;2023-05-03T14:46:30;16.90;92.10
15749;DHT22;7976;52.526;13.326;2023-05-03T14:48:56;16.90;92.20
15749;DHT22;7976;52.526;13.326;2023-05-03T14:51:25;16.90;92.10
15749;DHT22;7976;52.526;13.326;2023-05-03T14:53:53;16.90;91.90
15749;DHT22;7976;52.526;13.326;2023-05-03T14:56:20;16.80;91.70
15749;DHT22;7976;52.526;13.326;2023-05-03T14:58:46;16.70;91.80
15749;DHT22;7976;52.526;13.326;2023-05-03T15:01:17;16.80;91.80
15749;DHT22;7976;52.526;13.326;2023-05-03T15:03:45;16.80;91.90
15749;DHT22;7976;52.526;13.326;2023-05-03T15:06:12;16.90;91.70
15749;DHT22;7976;52.526;13.326;2023-05-03T15:08:39;16.90;91.70
15749;DHT22;7976;52.526;13.326;2023-05-03T15:11:06;16.80;91.40
15749;DHT22;7976;52.526;13.326;2023-05-03T15:13:33;16.80;91.60
15749;DHT22;7976;52.526;13.326;2023-05-03T15:16:00;16.80;91.50
15749;DHT22;7976;52.526;13.326;2023-05-03T15:18:27;16.70;91.50
15749;DHT22;7976;52.526;13.326;2023-05-03T15:20:55;16.70;91.50
15749;DHT22;7976;52.526;13.326;2023-05-03T15:23:22;16.70;91.70
15749;DHT22;7976;52.526;13.326;2023-05-03T15:25:49;16.70;91.50
15749;DHT22;7976;52.526;13.326;2023-05-03T15:28:16;16.60;91.80
15749;DHT22;7976;52.526;13.326;2023-05-03T15:30:42;16.60;91.50
15749;DHT22;7976;52.526;13.326;2023-05-03T15:33:09;16.60;91.50
15749;DHT22;7976;52.526;13.326;2023-05-03T15:35:38;16.60;91.60
15749;DHT22;7976;52.526;13.326;2023-05-03T15:38:07;16.60;91.80
15749;DHT22;7976;52.526;13.326;2023-05-03T15:40:34;16.60;91.90
15749;DHT22;7976;52.526;13.326;2023-05-03T15:43:00;16.70;91.80
15749;DHT22;7976;52.526;13.326;2023-05-03T15:45:27;16.60;91.60
15749;DHT22;7976;52.526;13.326;2023-05-03T15:47:56;16.60;91.60